sensor_id;sensor_type;location;lat;lon;timestamp;P1;durP1;ratioP1;P2;durP2;ratioP2
16320;SDS011;8269;50.990;4.494;2023-07-29T00:00:39;3.90;;;2.00;;
16320;SDS011;8269;50.990;4.494;2023-07-29T00:03:05;4.65;;;1.95;;
16320;SDS011;8269;50.990;4.494;2023-07-29T00:05:31;2.67;;;1.75;;
16320;SDS011;8269;50.990;4.494;2023-07-29T00:07:56;2.85;;;1.80;;
16320;SDS011;8269;50.990;4.494;2023-07-29T00:10:22;4.60;;;2.00;;
16320;SDS011;8269;50.990;4.494;2023-07-29T00:12:48;4.07;;;1.77;;
16320;SDS011;8269;50.990;4.494;2023-07-29T00:15:13;6.40;;;2.15;;
16320;SDS011;8269;50.990;4.494;2023-07-29T00:17:39;3.47;;;1.63;;
16320;SDS011;8269;50.990;4.494;2023-07-29T00:20:05;2.47;;;1.50;;
16320;SDS011;8269;50.990;4.494;2023-07-29T00:22:31;2.03;;;1.58;;
16320;SDS011;8269;50.990;4.494;2023-07-29T00:24:57;4.80;;;1.83;;
16320;SDS011;8269;50.990;4.494;2023-07-29T00:27:24;3.58;;;1.80;;
16320;SDS011;8269;50.990;4.494;2023-07-29T00:29:50;2.70;;;1.70;;
16320;SDS011;8269;50.990;4.494;2023-07-29T00:32:15;3.03;;;1.73;;
16320;SDS011;8269;50.990;4.494;2023-07-29T00:34:41;3.42;;;1.83;;
16320;SDS011;8269;50.990;4.494;2023-07-29T00:37:07;4.38;;;1.55;;
16320;SDS011;8269;50.990;4.494;2023-07-29T00:39:32;5.25;;;2.10;;
16320;SDS011;8269;50.990;4.494;2023-07-29T00:41:58;3.08;;;1.70;;
16320;SDS011;8269;50.990;4.494;2023-07-29T00:44:24;3.08;;;1.80;;
16320;SDS011;8269;50.990;4.494;2023-07-29T00:46:50;3.45;;;1.70;;
16320;SDS011;8269;50.990;4.494;2023-07-29T00:49:18;3.55;;;1.80;;
16320;SDS011;8269;50.990;4.494;2023-07-29T00:51:46;3.50;;;1.70;;
16320;SDS011;8269;50.990;4.494;2023-07-29T00:54:12;3.47;;;1.80;;
16320;SDS011;8269;50.990;4.494;2023-07-29T00:56:38;2.50;;;1.67;;
16320;SDS011;8269;50.990;4.494;2023-07-29T00:59:04;2.38;;;1.65;;
16320;SDS011;8269;50.990;4.494;2023-07-29T01:01:31;2.75;;;1.63;;
16320;SDS011;8269;50.990;4.494;2023-07-29T01:03:57;4.07;;;1.92;;
16320;SDS011;8269;50.990;4.494;2023-07-29T01:06:26;2.92;;;1.67;;
16320;SDS011;8269;50.990;4.494;2023-07-29T01:11:57;2.65;;;1.70;;
16320;SDS011;8269;50.990;4.494;2023-07-29T01:17:18;3.40;;;1.92;;
16320;SDS011;8269;50.990;4.494;2023-07-29T01:20:01;3.45;;;1.70;;
16320;SDS011;8269;50.990;4.494;2023-07-29T01:22:34;3.72;;;1.80;;
16320;SDS011;8269;50.990;4.494;2023-07-29T01:25:01;3.13;;;1.70;;
16320;SDS011;8269;50.990;4.494;2023-07-29T01:27:28;3.35;;;1.80;;
16320;SDS011;8269;50.990;4.494;2023-07-29T01:29:54;2.92;;;2.03;;
16320;SDS011;8269;50.990;4.494;2023-07-29T01:35:24;2.97;;;1.70;;
16320;SDS011;8269;50.990;4.494;2023-07-29T01:38:23;3.85;;;1.90;;
16320;SDS011;8269;50.990;4.494;2023-07-29T01:40:53;3.80;;;1.80;;
16320;SDS011;8269;50.990;4.494;2023-07-29T01:43:19;3.42;;;2.10;;
16320;SDS011;8269;50.990;4.494;2023-07-29T01:45:48;3.90;;;1.90;;
16320;SDS011;8269;50.990;4.494;2023-07-29T01:48:14;3.10;;;1.80;;
16320;SDS011;8269;50.990;4.494;2023-07-29T01:50:40;3.80;;;1.83;;
16320;SDS011;8269;50.990;4.494;2023-07-29T01:53:05;5.00;;;2.00;;
16320;SDS011;8269;50.990;4.494;2023-07-29T01:55:31;2.85;;;1.80;;
16320;SDS011;8269;50.990;4.494;2023-07-29T01:57:57;2.90;;;1.80;;
16320;SDS011;8269;50.990;4.494;2023-07-29T02:00:23;4.45;;;2.03;;
16320;SDS011;8269;50.990;4.494;2023-07-29T02:02:49;5.55;;;2.13;;
16320;SDS011;8269;50.990;4.494;2023-07-29T02:05:14;5.80;;;2.05;;
16320;SDS011;8269;50.990;4.494;2023-07-29T02:07:40;4.97;;;2.08;;
16320;SDS011;8269;50.990;4.494;2023-07-29T02:10:06;5.43;;;2.38;;
16320;SDS011;8269;50.990;4.494;2023-07-29T02:12:32;3.75;;;2.33;;
16320;SDS011;8269;50.990;4.494;2023-07-29T02:14:58;6.10;;;2.20;;
16320;SDS011;8269;50.990;4.494;2023-07-29T02:17:23;4.68;;;2.50;;
16320;SDS011;8269;50.990;4.494;2023-07-29T02:19:50;5.97;;;2.30;;
16320;SDS011;8269;50.990;4.494;2023-07-29T02:22:16;4.28;;;2.38;;
16320;SDS011;8269;50.990;4.494;2023-07-29T02:24:43;4.35;;;2.30;;
16320;SDS011;8269;50.990;4.494;2023-07-29T02:27:09;3.83;;;2.25;;
16320;SDS011;8269;50.990;4.494;2023-07-29T02:29:34;5.72;;;2.30;;
16320;SDS011;8269;50.990;4.494;2023-07-29T02:32:00;6.50;;;2.17;;
16320;SDS011;8269;50.990;4.494;2023-07-29T02:34:26;5.18;;;2.45;;
16320;SDS011;8269;50.990;4.494;2023-07-29T02:36:51;4.32;;;1.90;;
16320;SDS011;8269;50.990;4.494;2023-07-29T02:39:17;7.30;;;2.35;;
16320;SDS011;8269;50.990;4.494;2023-07-29T02:41:43;4.78;;;2.15;;
16320;SDS011;8269;50.990;4.494;2023-07-29T02:44:09;3.35;;;2.08;;
16320;SDS011;8269;50.990;4.494;2023-07-29T02:46:34;4.60;;;2.40;;
16320;SDS011;8269;50.990;4.494;2023-07-29T02:49:01;5.07;;;2.40;;
16320;SDS011;8269;50.990;4.494;2023-07-29T02:51:28;3.60;;;2.30;;
16320;SDS011;8269;50.990;4.494;2023-07-29T02:53:53;4.20;;;2.30;;
16320;SDS011;8269;50.990;4.494;2023-07-29T02:56:19;7.47;;;2.63;;
16320;SDS011;8269;50.990;4.494;2023-07-29T02:58:44;5.00;;;2.55;;
16320;SDS011;8269;50.990;4.494;2023-07-29T03:01:10;4.82;;;2.40;;
16320;SDS011;8269;50.990;4.494;2023-07-29T03:03:35;5.22;;;2.55;;
16320;SDS011;8269;50.990;4.494;2023-07-29T03:06:01;6.88;;;2.55;;
16320;SDS011;8269;50.990;4.494;2023-07-29T03:08:31;5.22;;;2.35;;
16320;SDS011;8269;50.990;4.494;2023-07-29T03:10:57;4.10;;;2.40;;
16320;SDS011;8269;50.990;4.494;2023-07-29T03:13:23;3.00;;;1.90;;
16320;SDS011;8269;50.990;4.494;2023-07-29T03:15:49;4.07;;;2.08;;
16320;SDS011;8269;50.990;4.494;2023-07-29T03:18:15;5.25;;;2.47;;
16320;SDS011;8269;50.990;4.494;2023-07-29T03:20:40;4.65;;;2.40;;
16320;SDS011;8269;50.990;4.494;2023-07-29T03:23:06;5.50;;;2.20;;
16320;SDS011;8269;50.990;4.494;2023-07-29T03:25:32;3.35;;;1.95;;
16320;SDS011;8269;50.990;4.494;2023-07-29T03:27:58;3.22;;;2.17;;
16320;SDS011;8269;50.990;4.494;2023-07-29T03:30:23;4.18;;;2.35;;
16320;SDS011;8269;50.990;4.494;2023-07-29T03:32:49;4.30;;;2.47;;
16320;SDS011;8269;50.990;4.494;2023-07-29T03:35:15;4.85;;;2.10;;
16320;SDS011;8269;50.990;4.494;2023-07-29T03:37:41;4.10;;;2.20;;
16320;SDS011;8269;50.990;4.494;2023-07-29T03:40:07;5.82;;;2.17;;
16320;SDS011;8269;50.990;4.494;2023-07-29T03:42:34;4.88;;;2.20;;
16320;SDS011;8269;50.990;4.494;2023-07-29T03:45:00;4.93;;;2.10;;
16320;SDS011;8269;50.990;4.494;2023-07-29T03:47:26;4.15;;;2.20;;
16320;SDS011;8269;50.990;4.494;2023-07-29T03:49:52;3.95;;;2.22;;
16320;SDS011;8269;50.990;4.494;2023-07-29T03:52:17;4.22;;;2.00;;
16320;SDS011;8269;50.990;4.494;2023-07-29T03:54:43;4.45;;;2.55;;
16320;SDS011;8269;50.990;4.494;2023-07-29T03:57:09;6.88;;;2.30;;
16320;SDS011;8269;50.990;4.494;2023-07-29T03:59:34;4.47;;;2.35;;
16320;SDS011;8269;50.990;4.494;2023-07-29T04:02:00;2.88;;;1.83;;
16320;SDS011;8269;50.990;4.494;2023-07-29T04:04:25;4.78;;;2.10;;
16320;SDS011;8269;50.990;4.494;2023-07-29T04:06:51;4.85;;;2.28;;
16320;SDS011;8269;50.990;4.494;2023-07-29T04:09:17;4.05;;;1.95;;
16320;SDS011;8269;50.990;4.494;2023-07-29T04:11:42;3.65;;;2.25;;
16320;SDS011;8269;50.990;4.494;2023-07-29T04:14:08;3.97;;;2.20;;
16320;SDS011;8269;50.990;4.494;2023-07-29T04:16:34;4.15;;;2.30;;
16320;SDS011;8269;50.990;4.494;2023-07-29T04:18:59;7.68;;;2.40;;
16320;SDS011;8269;50.990;4.494;2023-07-29T04:21:25;5.43;;;2.30;;
16320;SDS011;8269;50.990;4.494;2023-07-29T04:23:51;4.97;;;2.70;;
16320;SDS011;8269;50.990;4.494;2023-07-29T04:26:17;3.97;;;2.40;;
16320;SDS011;8269;50.990;4.494;2023-07-29T04:28:42;3.97;;;2.40;;
16320;SDS011;8269;50.990;4.494;2023-07-29T04:31:08;5.45;;;2.45;;
16320;SDS011;8269;50.990;4.494;2023-07-29T04:33:33;4.25;;;2.20;;
16320;SDS011;8269;50.990;4.494;2023-07-29T04:35:59;5.47;;;2.40;;
16320;SDS011;8269;50.990;4.494;2023-07-29T04:38:29;5.22;;;2.60;;
16320;SDS011;8269;50.990;4.494;2023-07-29T04:40:57;5.22;;;2.40;;
16320;SDS011;8269;50.990;4.494;2023-07-29T04:43:26;3.97;;;2.20;;
16320;SDS011;8269;50.990;4.494;2023-07-29T04:45:56;3.97;;;2.28;;
16320;SDS011;8269;50.990;4.494;2023-07-29T04:48:21;6.47;;;2.45;;
16320;SDS011;8269;50.990;4.494;2023-07-29T04:50:47;4.28;;;2.05;;
16320;SDS011;8269;50.990;4.494;2023-07-29T04:53:13;5.05;;;2.20;;
16320;SDS011;8269;50.990;4.494;2023-07-29T04:55:40;4.82;;;2.28;;
16320;SDS011;8269;50.990;4.494;2023-07-29T04:58:07;5.38;;;2.28;;
16320;SDS011;8269;50.990;4.494;2023-07-29T05:00:33;3.50;;;2.00;;
16320;SDS011;8269;50.990;4.494;2023-07-29T05:02:59;4.18;;;2.00;;
16320;SDS011;8269;50.990;4.494;2023-07-29T05:05:24;4.15;;;2.42;;
16320;SDS011;8269;50.990;4.494;2023-07-29T05:07:50;4.95;;;2.40;;
16320;SDS011;8269;50.990;4.494;2023-07-29T05:10:15;3.35;;;2.15;;
16320;SDS011;8269;50.990;4.494;2023-07-29T05:12:41;6.00;;;2.20;;
16320;SDS011;8269;50.990;4.494;2023-07-29T05:15:07;5.32;;;2.30;;
16320;SDS011;8269;50.990;4.494;2023-07-29T05:17:33;3.63;;;1.88;;
16320;SDS011;8269;50.990;4.494;2023-07-29T05:19:59;2.85;;;1.83;;
16320;SDS011;8269;50.990;4.494;2023-07-29T05:22:24;4.22;;;1.67;;
16320;SDS011;8269;50.990;4.494;2023-07-29T05:24:50;4.28;;;1.83;;
16320;SDS011;8269;50.990;4.494;2023-07-29T05:27:15;5.55;;;1.92;;
16320;SDS011;8269;50.990;4.494;2023-07-29T05:29:41;5.50;;;1.90;;
16320;SDS011;8269;50.990;4.494;2023-07-29T05:32:07;4.30;;;1.95;;
16320;SDS011;8269;50.990;4.494;2023-07-29T05:34:32;4.20;;;2.05;;
16320;SDS011;8269;50.990;4.494;2023-07-29T05:36:58;3.55;;;2.10;;
16320;SDS011;8269;50.990;4.494;2023-07-29T05:39:23;4.82;;;1.95;;
16320;SDS011;8269;50.990;4.494;2023-07-29T05:41:49;4.80;;;2.20;;
16320;SDS011;8269;50.990;4.494;2023-07-29T05:44:15;3.55;;;1.77;;
16320;SDS011;8269;50.990;4.494;2023-07-29T05:46:40;4.25;;;1.90;;
16320;SDS011;8269;50.990;4.494;2023-07-29T05:49:06;4.95;;;2.30;;
16320;SDS011;8269;50.990;4.494;2023-07-29T05:51:31;6.70;;;2.40;;
16320;SDS011;8269;50.990;4.494;2023-07-29T05:53:57;4.63;;;1.80;;
16320;SDS011;8269;50.990;4.494;2023-07-29T05:56:22;5.80;;;1.90;;
16320;SDS011;8269;50.990;4.494;2023-07-29T05:58:48;5.55;;;2.00;;
16320;SDS011;8269;50.990;4.494;2023-07-29T06:01:14;3.83;;;1.73;;
16320;SDS011;8269;50.990;4.494;2023-07-29T06:03:40;4.38;;;1.90;;
16320;SDS011;8269;50.990;4.494;2023-07-29T06:06:06;4.43;;;1.77;;
16320;SDS011;8269;50.990;4.494;2023-07-29T06:08:31;3.75;;;1.90;;
16320;SDS011;8269;50.990;4.494;2023-07-29T06:10:59;4.75;;;2.05;;
16320;SDS011;8269;50.990;4.494;2023-07-29T06:13:25;2.97;;;1.98;;
16320;SDS011;8269;50.990;4.494;2023-07-29T06:15:50;4.07;;;1.75;;
16320;SDS011;8269;50.990;4.494;2023-07-29T06:18:16;3.95;;;1.90;;
16320;SDS011;8269;50.990;4.494;2023-07-29T06:20:42;4.18;;;1.73;;
16320;SDS011;8269;50.990;4.494;2023-07-29T06:23:09;2.97;;;1.50;;
16320;SDS011;8269;50.990;4.494;2023-07-29T06:25:34;2.95;;;1.50;;
16320;SDS011;8269;50.990;4.494;2023-07-29T06:28:00;3.90;;;1.60;;
16320;SDS011;8269;50.990;4.494;2023-07-29T06:30:25;2.97;;;1.73;;
16320;SDS011;8269;50.990;4.494;2023-07-29T06:32:51;4.20;;;1.65;;
16320;SDS011;8269;50.990;4.494;2023-07-29T06:35:16;5.57;;;1.58;;
16320;SDS011;8269;50.990;4.494;2023-07-29T06:37:42;3.95;;;1.50;;
16320;SDS011;8269;50.990;4.494;2023-07-29T06:40:08;4.32;;;1.70;;
16320;SDS011;8269;50.990;4.494;2023-07-29T06:42:33;6.10;;;1.45;;
16320;SDS011;8269;50.990;4.494;2023-07-29T06:44:59;2.30;;;1.48;;
16320;SDS011;8269;50.990;4.494;2023-07-29T06:47:25;2.08;;;1.38;;
16320;SDS011;8269;50.990;4.494;2023-07-29T06:49:50;4.43;;;1.50;;
16320;SDS011;8269;50.990;4.494;2023-07-29T06:52:16;2.78;;;1.55;;
16320;SDS011;8269;50.990;4.494;2023-07-29T06:54:41;2.15;;;1.33;;
16320;SDS011;8269;50.990;4.494;2023-07-29T06:57:07;3.70;;;1.58;;
16320;SDS011;8269;50.990;4.494;2023-07-29T06:59:33;3.53;;;1.30;;
16320;SDS011;8269;50.990;4.494;2023-07-29T07:01:58;3.45;;;1.40;;
16320;SDS011;8269;50.990;4.494;2023-07-29T07:04:26;4.03;;;1.30;;
16320;SDS011;8269;50.990;4.494;2023-07-29T07:06:52;2.10;;;1.20;;
16320;SDS011;8269;50.990;4.494;2023-07-29T07:09:18;2.42;;;1.25;;
16320;SDS011;8269;50.990;4.494;2023-07-29T07:11:44;2.00;;;1.30;;
16320;SDS011;8269;50.990;4.494;2023-07-29T07:14:09;3.28;;;1.38;;
16320;SDS011;8269;50.990;4.494;2023-07-29T07:16:35;2.45;;;1.40;;
16320;SDS011;8269;50.990;4.494;2023-07-29T07:19:02;2.72;;;1.38;;
16320;SDS011;8269;50.990;4.494;2023-07-29T07:21:28;1.98;;;1.00;;
16320;SDS011;8269;50.990;4.494;2023-07-29T07:23:53;2.25;;;1.38;;
16320;SDS011;8269;50.990;4.494;2023-07-29T07:26:19;2.67;;;1.30;;
16320;SDS011;8269;50.990;4.494;2023-07-29T07:28:44;2.00;;;1.20;;
16320;SDS011;8269;50.990;4.494;2023-07-29T07:31:10;2.75;;;1.20;;
16320;SDS011;8269;50.990;4.494;2023-07-29T07:33:36;2.47;;;1.33;;
16320;SDS011;8269;50.990;4.494;2023-07-29T07:36:01;3.47;;;1.40;;
16320;SDS011;8269;50.990;4.494;2023-07-29T07:38:27;3.30;;;1.33;;
16320;SDS011;8269;50.990;4.494;2023-07-29T07:40:53;3.50;;;1.40;;
16320;SDS011;8269;50.990;4.494;2023-07-29T07:43:23;2.15;;;1.15;;
16320;SDS011;8269;50.990;4.494;2023-07-29T07:45:48;2.38;;;1.45;;
16320;SDS011;8269;50.990;4.494;2023-07-29T07:48:14;4.35;;;1.85;;
16320;SDS011;8269;50.990;4.494;2023-07-29T07:50:41;4.53;;;1.60;;
16320;SDS011;8269;50.990;4.494;2023-07-29T07:53:08;3.00;;;1.45;;
16320;SDS011;8269;50.990;4.494;2023-07-29T07:55:33;2.65;;;1.50;;
16320;SDS011;8269;50.990;4.494;2023-07-29T07:57:59;2.15;;;1.45;;
16320;SDS011;8269;50.990;4.494;2023-07-29T08:00:24;2.42;;;1.30;;
16320;SDS011;8269;50.990;4.494;2023-07-29T08:02:50;4.18;;;1.40;;
16320;SDS011;8269;50.990;4.494;2023-07-29T08:05:16;2.90;;;1.40;;
16320;SDS011;8269;50.990;4.494;2023-07-29T08:07:41;2.58;;;1.30;;
16320;SDS011;8269;50.990;4.494;2023-07-29T08:10:07;1.95;;;1.38;;
16320;SDS011;8269;50.990;4.494;2023-07-29T08:12:33;2.35;;;1.35;;
16320;SDS011;8269;50.990;4.494;2023-07-29T08:14:59;1.88;;;1.20;;
16320;SDS011;8269;50.990;4.494;2023-07-29T08:17:24;4.35;;;1.30;;
16320;SDS011;8269;50.990;4.494;2023-07-29T08:19:50;2.30;;;1.40;;
16320;SDS011;8269;50.990;4.494;2023-07-29T08:22:15;2.08;;;1.30;;
16320;SDS011;8269;50.990;4.494;2023-07-29T08:24:42;5.07;;;1.50;;
16320;SDS011;8269;50.990;4.494;2023-07-29T08:27:08;2.95;;;1.40;;
16320;SDS011;8269;50.990;4.494;2023-07-29T08:29:33;1.95;;;1.30;;
16320;SDS011;8269;50.990;4.494;2023-07-29T08:31:59;4.00;;;1.20;;
16320;SDS011;8269;50.990;4.494;2023-07-29T08:34:25;2.38;;;1.20;;
16320;SDS011;8269;50.990;4.494;2023-07-29T08:36:50;2.15;;;1.20;;
16320;SDS011;8269;50.990;4.494;2023-07-29T08:39:16;2.13;;;1.30;;
16320;SDS011;8269;50.990;4.494;2023-07-29T08:41:49;3.22;;;1.30;;
16320;SDS011;8269;50.990;4.494;2023-07-29T08:44:24;2.25;;;1.02;;
16320;SDS011;8269;50.990;4.494;2023-07-29T08:46:53;2.13;;;1.38;;
16320;SDS011;8269;50.990;4.494;2023-07-29T08:49:22;3.45;;;1.48;;
16320;SDS011;8269;50.990;4.494;2023-07-29T08:51:49;7.38;;;4.75;;
16320;SDS011;8269;50.990;4.494;2023-07-29T08:54:18;2.75;;;1.40;;
16320;SDS011;8269;50.990;4.494;2023-07-29T08:56:44;2.45;;;1.27;;
16320;SDS011;8269;50.990;4.494;2023-07-29T08:59:10;2.75;;;1.60;;
16320;SDS011;8269;50.990;4.494;2023-07-29T09:01:38;2.00;;;1.30;;
16320;SDS011;8269;50.990;4.494;2023-07-29T09:04:04;1.70;;;1.20;;
16320;SDS011;8269;50.990;4.494;2023-07-29T09:06:30;2.92;;;1.75;;
16320;SDS011;8269;50.990;4.494;2023-07-29T09:08:57;2.83;;;1.67;;
16320;SDS011;8269;50.990;4.494;2023-07-29T09:11:24;2.42;;;1.65;;
16320;SDS011;8269;50.990;4.494;2023-07-29T09:13:51;3.28;;;2.03;;
16320;SDS011;8269;50.990;4.494;2023-07-29T09:16:17;3.58;;;1.42;;
16320;SDS011;8269;50.990;4.494;2023-07-29T09:18:47;2.85;;;1.77;;
16320;SDS011;8269;50.990;4.494;2023-07-29T09:21:15;4.93;;;1.77;;
16320;SDS011;8269;50.990;4.494;2023-07-29T09:23:43;2.53;;;1.63;;
16320;SDS011;8269;50.990;4.494;2023-07-29T09:26:09;2.65;;;2.10;;
16320;SDS011;8269;50.990;4.494;2023-07-29T09:28:36;4.72;;;1.67;;
16320;SDS011;8269;50.990;4.494;2023-07-29T09:31:03;3.05;;;1.90;;
16320;SDS011;8269;50.990;4.494;2023-07-29T09:33:29;2.70;;;1.73;;
16320;SDS011;8269;50.990;4.494;2023-07-29T09:36:00;2.72;;;1.80;;
16320;SDS011;8269;50.990;4.494;2023-07-29T09:38:29;4.68;;;2.00;;
16320;SDS011;8269;50.990;4.494;2023-07-29T09:40:55;2.67;;;1.70;;
16320;SDS011;8269;50.990;4.494;2023-07-29T09:43:32;3.70;;;1.92;;
16320;SDS011;8269;50.990;4.494;2023-07-29T09:46:02;2.92;;;1.80;;
16320;SDS011;8269;50.990;4.494;2023-07-29T09:48:32;2.58;;;1.92;;
16320;SDS011;8269;50.990;4.494;2023-07-29T09:51:12;3.35;;;1.70;;
16320;SDS011;8269;50.990;4.494;2023-07-29T09:53:45;4.57;;;2.00;;
16320;SDS011;8269;50.990;4.494;2023-07-29T09:56:12;4.75;;;1.90;;
16320;SDS011;8269;50.990;4.494;2023-07-29T09:58:38;3.25;;;1.90;;
16320;SDS011;8269;50.990;4.494;2023-07-29T10:01:05;4.93;;;2.00;;
16320;SDS011;8269;50.990;4.494;2023-07-29T10:03:31;2.70;;;1.73;;
16320;SDS011;8269;50.990;4.494;2023-07-29T10:06:02;3.20;;;2.00;;
16320;SDS011;8269;50.990;4.494;2023-07-29T10:08:33;3.65;;;1.77;;
16320;SDS011;8269;50.990;4.494;2023-07-29T10:11:08;3.75;;;1.90;;
16320;SDS011;8269;50.990;4.494;2023-07-29T10:13:35;6.32;;;2.80;;
16320;SDS011;8269;50.990;4.494;2023-07-29T10:16:02;4.15;;;1.60;;
16320;SDS011;8269;50.990;4.494;2023-07-29T10:18:28;3.15;;;1.95;;
16320;SDS011;8269;50.990;4.494;2023-07-29T10:20:56;2.55;;;1.80;;
16320;SDS011;8269;50.990;4.494;2023-07-29T10:23:24;3.15;;;1.90;;
16320;SDS011;8269;50.990;4.494;2023-07-29T10:26:10;4.97;;;2.00;;
16320;SDS011;8269;50.990;4.494;2023-07-29T10:28:38;4.00;;;2.08;;
16320;SDS011;8269;50.990;4.494;2023-07-29T10:31:06;2.28;;;1.60;;
16320;SDS011;8269;50.990;4.494;2023-07-29T10:33:32;3.50;;;1.90;;
16320;SDS011;8269;50.990;4.494;2023-07-29T10:35:59;3.70;;;2.00;;
16320;SDS011;8269;50.990;4.494;2023-07-29T10:38:26;5.07;;;1.90;;
16320;SDS011;8269;50.990;4.494;2023-07-29T10:40:53;2.90;;;1.90;;
16320;SDS011;8269;50.990;4.494;2023-07-29T10:45:50;3.17;;;1.80;;
16320;SDS011;8269;50.990;4.494;2023-07-29T10:53:47;3.00;;;1.58;;
16320;SDS011;8269;50.990;4.494;2023-07-29T10:56:20;2.60;;;1.65;;
16320;SDS011;8269;50.990;4.494;2023-07-29T10:59:03;3.42;;;2.00;;
16320;SDS011;8269;50.990;4.494;2023-07-29T11:01:52;4.05;;;1.80;;
16320;SDS011;8269;50.990;4.494;2023-07-29T11:04:28;2.70;;;1.63;;
16320;SDS011;8269;50.990;4.494;2023-07-29T11:12:35;2.90;;;1.70;;
16320;SDS011;8269;50.990;4.494;2023-07-29T11:17:30;2.92;;;1.95;;
16320;SDS011;8269;50.990;4.494;2023-07-29T11:20:01;5.18;;;2.00;;
16320;SDS011;8269;50.990;4.494;2023-07-29T11:22:28;4.45;;;2.20;;
16320;SDS011;8269;50.990;4.494;2023-07-29T11:24:54;7.22;;;2.20;;
16320;SDS011;8269;50.990;4.494;2023-07-29T11:27:20;11.52;;;3.13;;
16320;SDS011;8269;50.990;4.494;2023-07-29T11:29:46;5.00;;;3.05;;
16320;SDS011;8269;50.990;4.494;2023-07-29T11:32:12;4.32;;;3.30;;
16320;SDS011;8269;50.990;4.494;2023-07-29T11:34:38;7.32;;;3.97;;
16320;SDS011;8269;50.990;4.494;2023-07-29T11:37:05;8.55;;;3.70;;
16320;SDS011;8269;50.990;4.494;2023-07-29T11:39:31;5.78;;;4.00;;
16320;SDS011;8269;50.990;4.494;2023-07-29T11:41:58;5.88;;;3.55;;
16320;SDS011;8269;50.990;4.494;2023-07-29T11:44:24;4.88;;;3.70;;
16320;SDS011;8269;50.990;4.494;2023-07-29T11:46:50;4.47;;;3.47;;
16320;SDS011;8269;50.990;4.494;2023-07-29T11:49:15;6.80;;;3.00;;
16320;SDS011;8269;50.990;4.494;2023-07-29T11:51:41;5.82;;;2.78;;
16320;SDS011;8269;50.990;4.494;2023-07-29T11:54:08;3.28;;;2.25;;
16320;SDS011;8269;50.990;4.494;2023-07-29T11:56:37;2.97;;;2.10;;
16320;SDS011;8269;50.990;4.494;2023-07-29T11:59:02;2.53;;;1.85;;
16320;SDS011;8269;50.990;4.494;2023-07-29T12:01:28;3.58;;;1.92;;
16320;SDS011;8269;50.990;4.494;2023-07-29T12:03:55;3.95;;;2.20;;
16320;SDS011;8269;50.990;4.494;2023-07-29T12:06:22;5.47;;;2.20;;
16320;SDS011;8269;50.990;4.494;2023-07-29T12:08:50;7.20;;;2.30;;
16320;SDS011;8269;50.990;4.494;2023-07-29T12:11:16;4.55;;;2.38;;
16320;SDS011;8269;50.990;4.494;2023-07-29T12:13:43;3.42;;;1.90;;
16320;SDS011;8269;50.990;4.494;2023-07-29T12:16:09;3.40;;;2.08;;
16320;SDS011;8269;50.990;4.494;2023-07-29T12:18:35;3.70;;;2.40;;
16320;SDS011;8269;50.990;4.494;2023-07-29T12:21:01;4.25;;;2.20;;
16320;SDS011;8269;50.990;4.494;2023-07-29T12:23:28;5.10;;;1.77;;
16320;SDS011;8269;50.990;4.494;2023-07-29T12:25:58;3.20;;;1.80;;
16320;SDS011;8269;50.990;4.494;2023-07-29T12:28:25;3.90;;;1.90;;
16320;SDS011;8269;50.990;4.494;2023-07-29T12:30:54;4.15;;;2.30;;
16320;SDS011;8269;50.990;4.494;2023-07-29T12:33:55;3.20;;;1.70;;
16320;SDS011;8269;50.990;4.494;2023-07-29T12:36:13;3.15;;;2.40;;
16320;SDS011;8269;50.990;4.494;2023-07-29T12:38:38;4.35;;;2.33;;
16320;SDS011;8269;50.990;4.494;2023-07-29T12:41:04;2.78;;;2.20;;
16320;SDS011;8269;50.990;4.494;2023-07-29T12:43:30;4.80;;;2.33;;
16320;SDS011;8269;50.990;4.494;2023-07-29T12:45:56;4.28;;;2.20;;
16320;SDS011;8269;50.990;4.494;2023-07-29T12:48:22;3.00;;;2.17;;
16320;SDS011;8269;50.990;4.494;2023-07-29T12:50:48;4.68;;;2.50;;
16320;SDS011;8269;50.990;4.494;2023-07-29T12:53:13;3.40;;;2.10;;
16320;SDS011;8269;50.990;4.494;2023-07-29T12:55:39;3.03;;;2.00;;
16320;SDS011;8269;50.990;4.494;2023-07-29T12:58:04;7.32;;;2.13;;
16320;SDS011;8269;50.990;4.494;2023-07-29T13:00:30;5.38;;;2.30;;
16320;SDS011;8269;50.990;4.494;2023-07-29T13:02:56;2.63;;;1.80;;
16320;SDS011;8269;50.990;4.494;2023-07-29T13:05:21;3.20;;;1.70;;
16320;SDS011;8269;50.990;4.494;2023-07-29T13:07:47;2.88;;;1.98;;
16320;SDS011;8269;50.990;4.494;2023-07-29T13:10:13;3.70;;;1.98;;
16320;SDS011;8269;50.990;4.494;2023-07-29T13:12:39;4.10;;;2.20;;
16320;SDS011;8269;50.990;4.494;2023-07-29T13:15:05;6.78;;;2.22;;
16320;SDS011;8269;50.990;4.494;2023-07-29T13:17:31;4.25;;;2.30;;
16320;SDS011;8269;50.990;4.494;2023-07-29T13:19:58;3.47;;;2.00;;
16320;SDS011;8269;50.990;4.494;2023-07-29T13:22:23;2.90;;;2.20;;
16320;SDS011;8269;50.990;4.494;2023-07-29T13:24:49;2.42;;;2.00;;
16320;SDS011;8269;50.990;4.494;2023-07-29T13:27:14;2.65;;;1.95;;
16320;SDS011;8269;50.990;4.494;2023-07-29T13:29:40;3.25;;;2.15;;
16320;SDS011;8269;50.990;4.494;2023-07-29T13:32:06;4.75;;;2.30;;
16320;SDS011;8269;50.990;4.494;2023-07-29T13:34:32;4.85;;;2.20;;
16320;SDS011;8269;50.990;4.494;2023-07-29T13:37:00;3.92;;;2.25;;
16320;SDS011;8269;50.990;4.494;2023-07-29T13:39:26;3.92;;;2.30;;
16320;SDS011;8269;50.990;4.494;2023-07-29T13:41:52;3.75;;;2.30;;
16320;SDS011;8269;50.990;4.494;2023-07-29T13:44:18;3.33;;;2.20;;
16320;SDS011;8269;50.990;4.494;2023-07-29T13:46:44;3.08;;;2.33;;
16320;SDS011;8269;50.990;4.494;2023-07-29T13:49:09;2.58;;;1.90;;
16320;SDS011;8269;50.990;4.494;2023-07-29T13:51:36;5.10;;;1.95;;
16320;SDS011;8269;50.990;4.494;2023-07-29T13:54:01;3.38;;;2.10;;
16320;SDS011;8269;50.990;4.494;2023-07-29T13:56:28;2.50;;;2.10;;
16320;SDS011;8269;50.990;4.494;2023-07-29T13:58:53;3.08;;;1.85;;
16320;SDS011;8269;50.990;4.494;2023-07-29T14:01:19;3.03;;;2.08;;
16320;SDS011;8269;50.990;4.494;2023-07-29T14:03:44;4.30;;;2.40;;
16320;SDS011;8269;50.990;4.494;2023-07-29T14:06:10;3.13;;;2.10;;
16320;SDS011;8269;50.990;4.494;2023-07-29T14:08:35;4.78;;;2.83;;
16320;SDS011;8269;50.990;4.494;2023-07-29T14:11:01;4.43;;;2.47;;
16320;SDS011;8269;50.990;4.494;2023-07-29T14:13:27;5.28;;;2.90;;
16320;SDS011;8269;50.990;4.494;2023-07-29T14:15:52;4.72;;;2.72;;
16320;SDS011;8269;50.990;4.494;2023-07-29T14:18:18;3.38;;;2.55;;
16320;SDS011;8269;50.990;4.494;2023-07-29T14:20:43;4.10;;;2.40;;
16320;SDS011;8269;50.990;4.494;2023-07-29T14:23:09;4.80;;;2.22;;
16320;SDS011;8269;50.990;4.494;2023-07-29T14:25:35;3.00;;;2.10;;
16320;SDS011;8269;50.990;4.494;2023-07-29T14:28:00;2.13;;;1.83;;
16320;SDS011;8269;50.990;4.494;2023-07-29T14:30:26;4.20;;;2.00;;
16320;SDS011;8269;50.990;4.494;2023-07-29T14:32:51;3.25;;;2.00;;
16320;SDS011;8269;50.990;4.494;2023-07-29T14:35:17;3.72;;;1.92;;
16320;SDS011;8269;50.990;4.494;2023-07-29T14:37:43;4.82;;;1.70;;
16320;SDS011;8269;50.990;4.494;2023-07-29T14:40:08;3.28;;;1.90;;
16320;SDS011;8269;50.990;4.494;2023-07-29T14:42:34;5.47;;;2.28;;
16320;SDS011;8269;50.990;4.494;2023-07-29T14:44:59;2.65;;;1.67;;
16320;SDS011;8269;50.990;4.494;2023-07-29T14:47:25;2.05;;;1.65;;
16320;SDS011;8269;50.990;4.494;2023-07-29T14:49:50;2.42;;;1.63;;
16320;SDS011;8269;50.990;4.494;2023-07-29T14:52:16;2.30;;;1.67;;
16320;SDS011;8269;50.990;4.494;2023-07-29T14:54:42;2.85;;;2.13;;
16320;SDS011;8269;50.990;4.494;2023-07-29T14:57:09;2.33;;;1.70;;
16320;SDS011;8269;50.990;4.494;2023-07-29T14:59:35;4.07;;;1.70;;
16320;SDS011;8269;50.990;4.494;2023-07-29T15:02:00;4.38;;;1.80;;
16320;SDS011;8269;50.990;4.494;2023-07-29T15:04:26;3.90;;;2.00;;
16320;SDS011;8269;50.990;4.494;2023-07-29T15:06:52;3.72;;;2.35;;
16320;SDS011;8269;50.990;4.494;2023-07-29T15:09:17;2.53;;;2.08;;
16320;SDS011;8269;50.990;4.494;2023-07-29T15:11:43;2.85;;;2.15;;
16320;SDS011;8269;50.990;4.494;2023-07-29T15:14:09;4.95;;;2.00;;
16320;SDS011;8269;50.990;4.494;2023-07-29T15:16:34;2.70;;;2.05;;
16320;SDS011;8269;50.990;4.494;2023-07-29T15:19:01;5.80;;;2.10;;
16320;SDS011;8269;50.990;4.494;2023-07-29T15:21:31;3.90;;;1.98;;